Quick Links (Output Below):   Max & Min Temps   /   Climate Reports   /   Zone Forecasts
River Forecasts   /   Forestry Forecasts   /   Aviation Forecasts   /   Radars   /   Features

Terminal Aerodrome Forecast (Pine Bluff)

Pick a Site:
Arkadelphia | El Dorado | Fayetteville | Fort Smith | Harrison | Highfill | Hot Springs | Jonesboro
Little Rock | Monticello | Mountain Home | Pine Bluff | Texarkana
 Forecast 

KPBF 241720Z 2418/2518 25004KT P6SM SCT050
     FM250000 00000KT P6SM SCT250
     FM251500 25006KT P6SM SCT250=


 Latest METARs (Observations) 
How to Decode METARs
16Z KPBF 241553Z AUTO VRB03KT 10SM CLR 17/09 A3018 RMK AO2 SLP219
         T01720094
         
15Z KPBF 241453Z AUTO 00000KT 10SM CLR 14/09 A3018 RMK AO2 SLP218
         T01440094 50007
         
14Z KPBF 241353Z AUTO 00000KT 10SM CLR 11/09 A3018 RMK AO2 SLP220
         T01060089
         
13Z KPBF 241253Z AUTO 00000KT 9SM CLR 07/07 A3017 RMK AO2 SLP217
         T00720067
         
12Z KPBF 241153Z AUTO 00000KT 8SM CLR 07/06 A3016 RMK AO2 SLP211
         T00720061 10094 20067 53002
         
11Z KPBF 241053Z AUTO 00000KT 9SM CLR 08/06 A3015 RMK AO2 SLP208
         T00780061
         
10Z KPBF 240953Z AUTO 00000KT 10SM CLR 08/07 A3015 RMK AO2 SLP209
         T00780067
         
09Z KPBF 240853Z AUTO 00000KT 10SM CLR 08/07 A3015 RMK AO2 SLP209
         T00780067 50002
         
08Z KPBF 240753Z AUTO 00000KT 10SM CLR 08/07 A3015 RMK AO2 SLP210
         T00830067
         
07Z KPBF 240653Z AUTO 00000KT 10SM FEW110 08/07 A3015 RMK AO2 SLP210
         T00830067
         
***** Today's Observations (Above) *****


Back to Main Page
http://www.srh.noaa.gov/lzk/qfcst.php

USA.gov is the U.S. government's official web portal to all federal, state and local government web resources and services.